Time;durP1;ratioP1;P1;durP2;ratioP2;P2;SDS_P1;SDS_P2;PMS_P1;PMS_P2;Temp;Humidity;BMP_temperature;BMP_pressure;BME280_temperature;BME280_humidity;BME280_pressure;Samples;Min_cycle;Max_cycle;Signal;HPM_P1;HPM_P2
2023/12/17 03:26:34;;;;;;;32.65;14.60;;;;;;;;;;5034983;28;20045;-82
2023/12/17 03:29:00;;;;;;;30.90;14.40;;;;;;;;;;5018615;28;20135;-82
2023/12/17 03:31:27;;;;;;;29.83;13.45;;;;;;;;;;5017413;28;20037;-83
2023/12/17 03:33:54;;;;;;;38.70;14.48;;;;;;;;;;5018305;28;20136;-84
2023/12/17 03:36:21;;;;;;;30.40;13.88;;;;;;;;;;5017750;28;20045;-81
2023/12/17 03:38:48;;;;;;;26.55;13.43;;;;;;;;;;5018616;28;20045;-82
2023/12/17 03:41:22;;;;;;;34.00;14.15;;;;;;;;;;5021736;28;20073;-82
2023/12/17 03:43:55;;;;;;;30.85;14.45;;;;;;;;;;5038609;28;20041;-84
2023/12/17 03:46:25;;;;;;;33.08;14.10;;;;;;;;;;5021771;28;20045;-83
2023/12/17 03:48:52;;;;;;;27.15;13.80;;;;;;;;;;5038817;28;20051;-82
2023/12/17 03:51:19;;;;;;;40.03;14.75;;;;;;;;;;5038121;28;20069;-82
2023/12/17 03:53:46;;;;;;;28.30;13.77;;;;;;;;;;5022080;28;20512;-83
2023/12/17 03:56:15;;;;;;;32.25;13.82;;;;;;;;;;5037934;28;20375;-83
2023/12/17 03:58:43;;;;;;;34.42;14.98;;;;;;;;;;5038491;28;20158;-83
2023/12/17 04:01:10;;;;;;;30.55;13.90;;;;;;;;;;5037919;28;20051;-82
2023/12/17 04:03:37;;;;;;;26.02;13.68;;;;;;;;;;5021693;28;20551;-82
2023/12/17 04:06:06;;;;;;;30.58;13.75;;;;;;;;;;5021494;28;20041;-82
2023/12/17 04:08:34;;;;;;;26.58;13.93;;;;;;;;;;5021748;28;20045;-82
2023/12/17 04:11:00;;;;;;;33.67;14.02;;;;;;;;;;5021595;28;20049;-83
2023/12/17 04:13:27;;;;;;;34.63;13.80;;;;;;;;;;5021112;28;20033;-83
2023/12/17 04:15:54;;;;;;;31.75;13.48;;;;;;;;;;5021952;28;20068;-83
2023/12/17 04:18:21;;;;;;;27.65;14.52;;;;;;;;;;5021232;28;20491;-82
2023/12/17 04:20:48;;;;;;;33.13;14.65;;;;;;;;;;5021518;28;20102;-82
2023/12/17 04:23:15;;;;;;;25.00;14.43;;;;;;;;;;5020939;28;20064;-82
2023/12/17 04:25:41;;;;;;;28.02;15.27;;;;;;;;;;5021448;28;20055;-82
2023/12/17 04:28:08;;;;;;;31.80;14.65;;;;;;;;;;5037413;28;20052;-82
2023/12/17 04:30:35;;;;;;;35.08;14.40;;;;;;;;;;5021391;28;20446;-83
2023/12/17 04:33:03;;;;;;;34.10;15.55;;;;;;;;;;5021423;28;20037;-82
2023/12/17 04:35:30;;;;;;;31.40;14.90;;;;;;;;;;5020809;28;20044;-82
2023/12/17 04:37:57;;;;;;;29.50;15.48;;;;;;;;;;5021130;28;20095;-83
2023/12/17 04:40:24;;;;;;;36.72;15.73;;;;;;;;;;5020535;28;20430;-83
2023/12/17 04:42:50;;;;;;;31.70;15.27;;;;;;;;;;5021200;28;20480;-83
2023/12/17 04:45:17;;;;;;;31.60;15.45;;;;;;;;;;5020663;28;20045;-83
2023/12/17 04:47:44;;;;;;;37.30;14.65;;;;;;;;;;5021080;28;20442;-83
2023/12/17 04:50:11;;;;;;;34.08;15.15;;;;;;;;;;5019771;28;20045;-83
2023/12/17 04:52:38;;;;;;;34.10;15.30;;;;;;;;;;5020459;28;20061;-83
2023/12/17 04:55:05;;;;;;;33.38;15.32;;;;;;;;;;5020553;28;20043;-82
2023/12/17 04:57:32;;;;;;;35.50;15.07;;;;;;;;;;5020784;28;20437;-83
2023/12/17 05:00:00;;;;;;;35.15;15.60;;;;;;;;;;5020772;28;20072;-83
2023/12/17 05:02:28;;;;;;;31.75;15.43;;;;;;;;;;5020137;28;20040;-83
2023/12/17 05:04:55;;;;;;;31.30;15.25;;;;;;;;;;5020490;28;20052;-83
2023/12/17 05:07:22;;;;;;;39.72;15.95;;;;;;;;;;5020326;28;20351;-83
2023/12/17 05:09:48;;;;;;;32.25;15.30;;;;;;;;;;5017384;28;20048;-83
2023/12/17 05:12:16;;;;;;;35.45;15.90;;;;;;;;;;5036866;28;20400;-82
2023/12/17 05:14:42;;;;;;;30.40;14.88;;;;;;;;;;5020466;28;20428;-82
2023/12/17 05:17:09;;;;;;;38.67;16.02;;;;;;;;;;5020244;28;20037;-84
2023/12/17 05:19:36;;;;;;;44.25;16.95;;;;;;;;;;5020655;28;20068;-83
2023/12/17 05:22:03;;;;;;;37.83;16.20;;;;;;;;;;5019884;28;20483;-81
2023/12/17 05:24:30;;;;;;;39.63;17.73;;;;;;;;;;5020370;28;20414;-83
2023/12/17 05:26:57;;;;;;;36.38;15.95;;;;;;;;;;5020388;28;20487;-83
2023/12/17 05:29:24;;;;;;;36.95;16.73;;;;;;;;;;5019903;28;20541;-83
2023/12/17 05:31:51;;;;;;;32.97;16.65;;;;;;;;;;5036665;28;20403;-82
2023/12/17 05:34:17;;;;;;;36.22;17.35;;;;;;;;;;5019770;28;20063;-82
2023/12/17 05:36:44;;;;;;;27.27;16.80;;;;;;;;;;5020140;28;20052;-83
2023/12/17 05:39:11;;;;;;;34.28;16.98;;;;;;;;;;5019504;28;20128;-82
2023/12/17 05:41:38;;;;;;;40.50;18.58;;;;;;;;;;5020090;28;20123;-83
2023/12/17 05:44:05;;;;;;;35.42;18.83;;;;;;;;;;5019255;28;20450;-82
2023/12/17 05:46:32;;;;;;;40.88;18.17;;;;;;;;;;5020097;28;20427;-82
2023/12/17 05:48:58;;;;;;;39.80;17.95;;;;;;;;;;5020136;28;20045;-83
2023/12/17 05:51:25;;;;;;;39.70;19.25;;;;;;;;;;5035975;28;20056;-82
2023/12/17 05:53:52;;;;;;;43.05;20.13;;;;;;;;;;5019963;28;20099;-83
2023/12/17 05:56:19;;;;;;;44.75;19.73;;;;;;;;;;5019412;28;20045;-82
2023/12/17 05:58:46;;;;;;;47.67;19.10;;;;;;;;;;5036510;28;20033;-83
2023/12/17 06:01:14;;;;;;;46.75;19.13;;;;;;;;;;5019038;28;20133;-83
2023/12/17 06:03:40;;;;;;;37.80;18.52;;;;;;;;;;5019275;28;20076;-83
2023/12/17 06:06:08;;;;;;;39.83;19.17;;;;;;;;;;5019153;28;20049;-83
2023/12/17 06:08:35;;;;;;;38.08;17.00;;;;;;;;;;5019568;28;20037;-84
2023/12/17 06:11:02;;;;;;;34.40;19.60;;;;;;;;;;5016842;28;20050;-83
2023/12/17 06:13:29;;;;;;;42.95;18.85;;;;;;;;;;5019010;28;20068;-83
2023/12/17 06:15:57;;;;;;;40.78;19.08;;;;;;;;;;5019401;28;20052;-83
2023/12/17 06:18:24;;;;;;;41.47;19.00;;;;;;;;;;5018947;28;20056;-83
2023/12/17 06:20:51;;;;;;;47.13;19.88;;;;;;;;;;5019157;28;20071;-84
2023/12/17 06:23:18;;;;;;;40.78;19.30;;;;;;;;;;5018829;28;20106;-82
2023/12/17 06:25:44;;;;;;;42.10;19.55;;;;;;;;;;5036095;28;20087;-83
2023/12/17 06:28:12;;;;;;;41.53;19.13;;;;;;;;;;5036271;28;20048;-83
2023/12/17 06:30:39;;;;;;;39.05;18.92;;;;;;;;;;5021151;28;20037;-83
2023/12/17 06:33:06;;;;;;;36.75;18.73;;;;;;;;;;5020173;28;20045;-83
2023/12/17 06:35:33;;;;;;;36.33;18.98;;;;;;;;;;5035993;28;20051;-83
2023/12/17 06:37:59;;;;;;;41.50;18.17;;;;;;;;;;5018981;28;20075;-83
2023/12/17 06:40:27;;;;;;;38.25;17.88;;;;;;;;;;5018284;28;20106;-83
2023/12/17 06:42:54;;;;;;;45.85;18.75;;;;;;;;;;5035510;28;20033;-82
2023/12/17 06:45:21;;;;;;;38.58;18.35;;;;;;;;;;5018459;28;20115;-83
2023/12/17 06:47:47;;;;;;;38.33;18.33;;;;;;;;;;5019187;28;20043;-84
2023/12/17 06:50:14;;;;;;;45.83;19.67;;;;;;;;;;5018631;28;20041;-83
2023/12/17 06:52:42;;;;;;;38.50;19.25;;;;;;;;;;5018980;28;20036;-82
2023/12/17 06:55:09;;;;;;;42.35;19.50;;;;;;;;;;5018480;28;20045;-82
2023/12/17 06:57:36;;;;;;;39.85;20.33;;;;;;;;;;5019329;28;20045;-83
2023/12/17 07:00:04;;;;;;;49.15;23.98;;;;;;;;;;5019267;28;20077;-83
2023/12/17 07:02:34;;;;;;;47.15;22.15;;;;;;;;;;5018706;28;20430;-83
2023/12/17 07:05:01;;;;;;;45.90;19.88;;;;;;;;;;5018806;28;20369;-83
2023/12/17 07:07:28;;;;;;;39.17;20.20;;;;;;;;;;5034722;28;20037;-84
2023/12/17 07:09:55;;;;;;;47.95;19.02;;;;;;;;;;5015101;28;20099;-83
2023/12/17 07:12:21;;;;;;;42.00;20.42;;;;;;;;;;5018001;28;20051;-83
2023/12/17 07:14:48;;;;;;;41.45;19.30;;;;;;;;;;5017855;28;20095;-83
2023/12/17 07:17:15;;;;;;;44.83;20.00;;;;;;;;;;5017785;28;20383;-83
2023/12/17 07:19:42;;;;;;;45.85;20.33;;;;;;;;;;5018365;28;20052;-83
2023/12/17 07:22:09;;;;;;;44.20;19.92;;;;;;;;;;5034488;28;20471;-83
2023/12/17 07:24:36;;;;;;;41.28;19.70;;;;;;;;;;5018380;28;20086;-83
2023/12/17 07:27:03;;;;;;;40.85;20.48;;;;;;;;;;5018516;28;20049;-82
2023/12/17 07:29:30;;;;;;;42.22;19.45;;;;;;;;;;5018028;28;20129;-83
2023/12/17 07:31:57;;;;;;;42.25;20.05;;;;;;;;;;5018284;28;20068;-83
2023/12/17 07:34:23;;;;;;;38.72;20.35;;;;;;;;;;5017472;28;20128;-83
2023/12/17 07:36:50;;;;;;;52.15;20.20;;;;;;;;;;5018047;28;20048;-83
2023/12/17 07:39:18;;;;;;;38.85;20.02;;;;;;;;;;5009711;28;20050;-81
2023/12/17 07:41:46;;;;;;;39.60;18.70;;;;;;;;;;5015587;28;20439;-84
2023/12/17 07:44:13;;;;;;;45.65;20.05;;;;;;;;;;5014944;28;20065;-84
2023/12/17 07:46:39;;;;;;;43.88;19.73;;;;;;;;;;5030199;28;20071;-84
2023/12/17 07:49:06;;;;;;;46.75;19.88;;;;;;;;;;5029032;28;20530;-83
2023/12/17 07:51:34;;;;;;;56.95;20.98;;;;;;;;;;5008602;28;20038;-82
2023/12/17 07:54:01;;;;;;;40.88;19.55;;;;;;;;;;5011769;28;20099;-83
2023/12/17 07:56:28;;;;;;;37.75;21.15;;;;;;;;;;5011456;28;20049;-83
2023/12/17 07:58:55;;;;;;;37.90;19.45;;;;;;;;;;5007666;28;20051;-82
2023/12/17 08:01:29;;;;;;;40.45;18.83;;;;;;;;;;5007792;28;20037;-82
2023/12/17 08:03:57;;;;;;;41.92;20.02;;;;;;;;;;5011619;28;20107;-82
2023/12/17 08:06:24;;;;;;;41.03;19.10;;;;;;;;;;5010899;28;20132;-81
2023/12/17 08:08:52;;;;;;;39.88;19.52;;;;;;;;;;5025916;28;20037;-83
2023/12/17 08:11:20;;;;;;;50.20;20.23;;;;;;;;;;5005261;28;20088;-83
2023/12/17 08:13:47;;;;;;;45.08;20.17;;;;;;;;;;4996801;28;20044;-83
2023/12/17 08:16:14;;;;;;;45.38;20.25;;;;;;;;;;4996406;28;20140;-83
2023/12/17 08:18:41;;;;;;;45.65;20.15;;;;;;;;;;5015158;28;20357;-83
2023/12/17 08:21:08;;;;;;;50.50;20.15;;;;;;;;;;5015695;28;20053;-82
2023/12/17 08:23:35;;;;;;;43.42;19.65;;;;;;;;;;5018320;28;20037;-83
2023/12/17 08:26:04;;;;;;;41.10;19.38;;;;;;;;;;5004672;28;20045;-85
2023/12/17 08:28:31;;;;;;;41.33;20.33;;;;;;;;;;5036166;28;20047;-83
2023/12/17 08:30:59;;;;;;;34.97;19.17;;;;;;;;;;5019331;28;20068;-84
2023/12/17 08:33:27;;;;;;;41.15;18.73;;;;;;;;;;5018993;28;20041;-83
2023/12/17 08:35:54;;;;;;;40.72;19.83;;;;;;;;;;5017456;28;20068;-83
2023/12/17 08:38:21;;;;;;;44.08;19.40;;;;;;;;;;5019074;28;20045;-83
2023/12/17 08:40:48;;;;;;;36.72;18.42;;;;;;;;;;5017920;28;20072;-84
2023/12/17 08:43:15;;;;;;;49.78;19.67;;;;;;;;;;5010587;28;20108;-83
2023/12/17 08:45:42;;;;;;;34.17;19.65;;;;;;;;;;5015491;28;20048;-83
2023/12/17 08:48:09;;;;;;;40.08;18.88;;;;;;;;;;5018650;28;20079;-83
2023/12/17 08:50:36;;;;;;;42.30;19.50;;;;;;;;;;5017498;28;20091;-82
2023/12/17 08:53:02;;;;;;;39.15;19.42;;;;;;;;;;5010374;28;20076;-83
2023/12/17 08:55:29;;;;;;;45.53;19.25;;;;;;;;;;5015673;28;20065;-80
2023/12/17 08:57:56;;;;;;;40.80;19.23;;;;;;;;;;5016927;28;20128;-77
2023/12/17 09:00:23;;;;;;;48.05;18.92;;;;;;;;;;5039097;28;20041;-86
2023/12/17 09:02:51;;;;;;;37.53;18.83;;;;;;;;;;5017986;28;20061;-86
2023/12/17 09:05:18;;;;;;;47.00;19.20;;;;;;;;;;5010413;28;20049;-87
2023/12/17 09:07:45;;;;;;;39.70;18.05;;;;;;;;;;5018210;28;20033;-86
2023/12/17 09:10:12;;;;;;;41.13;18.17;;;;;;;;;;5008444;28;20045;-88
2023/12/17 09:12:39;;;;;;;31.75;17.98;;;;;;;;;;5014047;28;20049;-86
2023/12/17 09:15:06;;;;;;;46.85;20.77;;;;;;;;;;5017470;28;20499;-86
2023/12/17 09:17:34;;;;;;;35.00;19.27;;;;;;;;;;5018374;28;20041;-86
2023/12/17 09:20:01;;;;;;;33.08;16.98;;;;;;;;;;5021752;28;20535;-86
2023/12/17 09:22:28;;;;;;;33.88;17.48;;;;;;;;;;5022214;28;20049;-86
2023/12/17 09:24:55;;;;;;;30.80;18.08;;;;;;;;;;5012031;28;20037;-85
2023/12/17 09:27:23;;;;;;;34.33;17.90;;;;;;;;;;5025409;28;20120;-86
2023/12/17 09:29:50;;;;;;;34.25;16.35;;;;;;;;;;5012784;28;20047;-87
2023/12/17 09:32:17;;;;;;;34.22;16.80;;;;;;;;;;5008148;28;20049;-86
2023/12/17 09:34:44;;;;;;;37.28;18.92;;;;;;;;;;5005815;28;20076;-87
2023/12/17 09:37:11;;;;;;;43.40;19.77;;;;;;;;;;5021151;28;20118;-86
2023/12/17 09:39:39;;;;;;;34.03;18.30;;;;;;;;;;5013368;28;20045;-86
2023/12/17 09:42:06;;;;;;;36.00;18.30;;;;;;;;;;5026603;28;20049;-86
2023/12/17 09:44:33;;;;;;;44.35;19.83;;;;;;;;;;5006558;28;20048;-87
2023/12/17 09:47:01;;;;;;;32.22;18.85;;;;;;;;;;5016968;28;20053;-87
2023/12/17 09:49:28;;;;;;;40.33;19.35;;;;;;;;;;5015510;28;20048;-86
2023/12/17 09:52:04;;;;;;;38.58;18.23;;;;;;;;;;5026909;28;20495;-85
2023/12/17 09:54:31;;;;;;;33.42;17.58;;;;;;;;;;5005450;28;20033;-86
2023/12/17 09:57:00;;;;;;;34.92;19.98;;;;;;;;;;5010923;28;20049;-85
2023/12/17 09:59:27;;;;;;;32.30;18.90;;;;;;;;;;5009935;28;20045;-86
2023/12/17 10:01:55;;;;;;;37.55;20.15;;;;;;;;;;5015862;28;20044;-86
2023/12/17 10:04:26;;;;;;;42.53;20.02;;;;;;;;;;5011291;28;20052;-86
2023/12/17 10:06:53;;;;;;;42.13;19.92;;;;;;;;;;5013612;28;20049;-86
2023/12/17 10:09:20;;;;;;;34.45;19.33;;;;;;;;;;5011332;28;20480;-86
2023/12/17 10:11:47;;;;;;;38.63;17.95;;;;;;;;;;5010282;28;20091;-86
2023/12/17 10:14:22;;;;;;;32.53;18.13;;;;;;;;;;5013967;28;20061;-86
2023/12/17 10:16:50;;;;;;;31.75;16.92;;;;;;;;;;5017559;28;20044;-86
2023/12/17 10:19:18;;;;;;;39.20;18.75;;;;;;;;;;5003660;28;20037;-86
2023/12/17 10:21:45;;;;;;;40.40;19.17;;;;;;;;;;5013461;28;20128;-86
2023/12/17 10:24:12;;;;;;;32.70;18.15;;;;;;;;;;5016537;28;20294;-86
2023/12/17 10:26:48;;;;;;;37.05;18.15;;;;;;;;;;5020593;28;20063;-86
2023/12/17 10:29:20;;;;;;;30.10;16.30;;;;;;;;;;5031975;28;20498;-87
2023/12/17 10:31:47;;;;;;;34.08;16.25;;;;;;;;;;5030627;28;20026;-86
2023/12/17 10:34:19;;;;;;;31.05;16.00;;;;;;;;;;5033978;28;20164;-85
2023/12/17 10:36:48;;;;;;;29.90;15.55;;;;;;;;;;5017271;28;20109;-85
2023/12/17 10:39:16;;;;;;;24.73;15.30;;;;;;;;;;5015881;28;20041;-85
2023/12/17 10:41:43;;;;;;;28.10;15.57;;;;;;;;;;5011477;28;20685;-85
2023/12/17 10:44:14;;;;;;;32.17;16.02;;;;;;;;;;5007951;28;20052;-85
2023/12/17 10:46:43;;;;;;;30.48;16.00;;;;;;;;;;5013585;28;20075;-85
2023/12/17 10:49:11;;;;;;;31.08;14.52;;;;;;;;;;5014396;28;20056;-84
2023/12/17 10:51:41;;;;;;;24.38;14.38;;;;;;;;;;5013752;28;20498;-84
2023/12/17 10:54:09;;;;;;;32.42;14.13;;;;;;;;;;5013918;28;20044;-85
2023/12/17 10:56:41;;;;;;;25.63;14.80;;;;;;;;;;5017056;28;20045;-84
2023/12/17 10:59:14;;;;;;;31.42;14.77;;;;;;;;;;5013329;28;20048;-85
2023/12/17 11:02:01;;;;;;;31.42;16.08;;;;;;;;;;5014797;28;20142;-85
2023/12/17 11:04:28;;;;;;;29.45;15.23;;;;;;;;;;5012559;28;20038;-84
2023/12/17 11:06:55;;;;;;;33.25;17.35;;;;;;;;;;4998482;28;20508;-85
2023/12/17 11:09:22;;;;;;;36.38;16.05;;;;;;;;;;4999152;28;20135;-84
2023/12/17 11:11:50;;;;;;;29.15;14.70;;;;;;;;;;4995008;28;20488;-85
2023/12/17 11:14:18;;;;;;;22.73;13.55;;;;;;;;;;5011586;28;20046;-84
2023/12/17 11:16:45;;;;;;;29.20;13.50;;;;;;;;;;5015019;28;20053;-85
2023/12/17 11:19:12;;;;;;;28.25;13.95;;;;;;;;;;5009237;28;20049;-85
2023/12/17 11:21:44;;;;;;;30.27;14.43;;;;;;;;;;5005918;28;20124;-84
2023/12/17 11:24:11;;;;;;;25.60;14.07;;;;;;;;;;5008851;28;20052;-85
2023/12/17 11:26:40;;;;;;;27.45;13.32;;;;;;;;;;5010298;28;20109;-85
2023/12/17 11:29:34;;;;;;;31.08;14.25;;;;;;;;;;5029184;28;20121;-85
2023/12/17 11:32:05;;;;;;;32.33;12.70;;;;;;;;;;5010578;28;20448;-85
2023/12/17 11:34:33;;;;;;;22.50;12.43;;;;;;;;;;5012659;28;20037;-85
2023/12/17 11:37:00;;;;;;;30.27;13.27;;;;;;;;;;5013337;28;20061;-84
2023/12/17 11:39:28;;;;;;;26.55;12.52;;;;;;;;;;5012103;28;20049;-86
2023/12/17 11:41:55;;;;;;;25.73;12.65;;;;;;;;;;5013112;28;20050;-84
2023/12/17 11:44:22;;;;;;;28.70;11.88;;;;;;;;;;5012356;28;20041;-84
2023/12/17 11:46:50;;;;;;;22.52;12.55;;;;;;;;;;5009846;28;20056;-84
2023/12/17 11:49:26;;;;;;;28.25;13.60;;;;;;;;;;5005958;28;20404;-85
2023/12/17 11:51:54;;;;;;;24.83;12.98;;;;;;;;;;5017411;28;20133;-84
2023/12/17 11:54:22;;;;;;;23.40;12.32;;;;;;;;;;5012347;28;20055;-85
2023/12/17 11:56:50;;;;;;;26.92;12.27;;;;;;;;;;5023988;28;20122;-83
2023/12/17 11:59:35;;;;;;;25.27;10.93;;;;;;;;;;5012092;28;20519;-84
2023/12/17 12:02:04;;;;;;;26.80;13.23;;;;;;;;;;5013396;28;20042;-83
2023/12/17 12:04:41;;;;;;;24.60;12.60;;;;;;;;;;5016130;28;20399;-83
2023/12/17 12:07:09;;;;;;;25.73;12.43;;;;;;;;;;5016439;28;20152;-84
2023/12/17 12:09:38;;;;;;;21.27;9.68;;;;;;;;;;5013019;28;20374;-84
2023/12/17 12:12:18;;;;;;;13.05;6.68;;;;;;;;;;5016305;28;20054;-84
2023/12/17 12:14:47;;;;;;;12.70;6.25;;;;;;;;;;5005768;28;20037;-84
2023/12/17 12:17:40;;;;;;;8.40;4.63;;;;;;;;;;5016002;28;20124;-84
2023/12/17 12:20:10;;;;;;;7.22;2.38;;;;;;;;;;5015456;28;20038;-85
2023/12/17 12:22:41;;;;;;;7.07;2.40;;;;;;;;;;5016277;28;20049;-85
2023/12/17 12:25:12;;;;;;;8.57;1.80;;;;;;;;;;5006092;28;20492;-83
2023/12/17 12:27:39;;;;;;;5.78;1.80;;;;;;;;;;5012619;28;20046;-83
2023/12/17 12:30:23;;;;;;;6.47;2.25;;;;;;;;;;5011559;28;20456;-83
2023/12/17 12:32:50;;;;;;;5.18;2.15;;;;;;;;;;5012641;28;20061;-81
2023/12/17 12:35:22;;;;;;;8.30;2.10;;;;;;;;;;5014931;28;20132;-83
2023/12/17 12:37:49;;;;;;;7.47;3.83;;;;;;;;;;5010738;28;20136;-82
2023/12/17 12:40:16;;;;;;;5.05;2.30;;;;;;;;;;5014380;28;20464;-81
2023/12/17 12:42:43;;;;;;;9.68;2.42;;;;;;;;;;5031172;28;20103;-83
2023/12/17 12:45:10;;;;;;;4.95;2.30;;;;;;;;;;5014388;28;20121;-83
2023/12/17 12:47:37;;;;;;;5.50;2.70;;;;;;;;;;5015248;28;20387;-83
2023/12/17 12:50:05;;;;;;;6.38;2.45;;;;;;;;;;5031297;28;20049;-82
2023/12/17 12:52:32;;;;;;;6.43;2.30;;;;;;;;;;5016087;28;20042;-82
2023/12/17 12:54:59;;;;;;;11.45;3.38;;;;;;;;;;5015534;28;20132;-80
2023/12/17 12:57:26;;;;;;;12.43;5.25;;;;;;;;;;5032175;28;20460;-80
2023/12/17 12:59:53;;;;;;;11.00;5.47;;;;;;;;;;5032050;28;20045;-80
2023/12/17 13:02:20;;;;;;;92.35;32.50;;;;;;;;;;5031475;28;20042;-80
2023/12/17 13:04:48;;;;;;;69.28;21.95;;;;;;;;;;5012562;28;20078;-80
2023/12/17 13:07:15;;;;;;;44.60;16.00;;;;;;;;;;5030653;28;20069;-79
2023/12/17 13:09:42;;;;;;;32.97;14.77;;;;;;;;;;5033595;28;20480;-77
2023/12/17 13:12:13;;;;;;;59.17;22.27;;;;;;;;;;5031845;28;20099;-82
2023/12/17 13:14:40;;;;;;;33.70;12.35;;;;;;;;;;5017077;28;20460;-82
2023/12/17 13:17:07;;;;;;;23.70;8.57;;;;;;;;;;5031876;28;20048;-81
2023/12/17 13:19:34;;;;;;;39.05;13.65;;;;;;;;;;5031954;28;20076;-81
2023/12/17 13:22:01;;;;;;;48.75;15.60;;;;;;;;;;5031364;28;20045;-82
2023/12/17 13:24:28;;;;;;;71.55;21.15;;;;;;;;;;5013571;28;20120;-81
2023/12/17 13:26:56;;;;;;;94.50;28.67;;;;;;;;;;5015653;28;20048;-81
2023/12/17 13:29:23;;;;;;;94.30;25.80;;;;;;;;;;5011481;28;20054;-82
2023/12/17 13:31:50;;;;;;;82.80;25.98;;;;;;;;;;5011885;28;20429;-81
2023/12/17 13:34:20;;;;;;;52.35;19.05;;;;;;;;;;5008561;28;20436;-82
2023/12/17 13:36:47;;;;;;;43.17;15.77;;;;;;;;;;5011644;28;20128;-81
2023/12/17 13:39:14;;;;;;;12.30;5.78;;;;;;;;;;5009661;28;20053;-82
2023/12/17 13:41:41;;;;;;;32.72;12.90;;;;;;;;;;5013465;28;20304;-82
2023/12/17 13:44:20;;;;;;;34.30;14.07;;;;;;;;;;5031120;28;20034;-81
2023/12/17 13:46:47;;;;;;;13.23;5.00;;;;;;;;;;5014270;28;20230;-81
2023/12/17 13:49:14;;;;;;;34.13;13.10;;;;;;;;;;5013708;28;20045;-84
2023/12/17 13:51:41;;;;;;;9.05;3.55;;;;;;;;;;5017217;28;20043;-82
2023/12/17 13:54:07;;;;;;;34.75;11.98;;;;;;;;;;5030059;28;20042;-80
2023/12/17 13:56:34;;;;;;;23.27;8.82;;;;;;;;;;5014607;28;20041;-81
2023/12/17 13:59:07;;;;;;;54.95;18.45;;;;;;;;;;5014718;28;20041;-81
2023/12/17 14:01:34;;;;;;;47.63;16.85;;;;;;;;;;5014813;28;20056;-81
2023/12/17 14:04:01;;;;;;;23.63;9.00;;;;;;;;;;5010859;28;20053;-81
2023/12/17 14:06:28;;;;;;;16.70;7.10;;;;;;;;;;5026253;28;20042;-80
2023/12/17 14:08:56;;;;;;;20.25;8.02;;;;;;;;;;5010756;28;20133;-81
2023/12/17 14:11:23;;;;;;;41.80;15.70;;;;;;;;;;5028654;28;20065;-81
2023/12/17 14:14:00;;;;;;;26.50;12.85;;;;;;;;;;5005527;28;20555;-81
2023/12/17 14:16:30;;;;;;;8.23;4.78;;;;;;;;;;5013706;28;20049;-80
2023/12/17 14:18:58;;;;;;;28.52;13.93;;;;;;;;;;5014514;28;20049;-82
2023/12/17 14:21:25;;;;;;;16.23;7.80;;;;;;;;;;5013863;28;20037;-80
2023/12/17 14:23:54;;;;;;;18.70;8.23;;;;;;;;;;5013595;28;20091;-80
2023/12/17 14:26:24;;;;;;;29.48;12.85;;;;;;;;;;4997853;28;20037;-81
2023/12/17 14:28:51;;;;;;;18.52;9.10;;;;;;;;;;5014148;28;20487;-82
2023/12/17 14:31:18;;;;;;;12.30;4.80;;;;;;;;;;5012977;28;20488;-82
2023/12/17 14:33:45;;;;;;;22.02;10.82;;;;;;;;;;5013875;28;20045;-82
2023/12/17 14:36:12;;;;;;;19.40;9.05;;;;;;;;;;5010172;28;20030;-82
2023/12/17 14:38:39;;;;;;;8.82;5.10;;;;;;;;;;5021723;28;20129;-80
2023/12/17 14:41:07;;;;;;;12.73;6.47;;;;;;;;;;5013530;28;20057;-82
2023/12/17 14:43:34;;;;;;;11.98;5.25;;;;;;;;;;5030756;28;20140;-82
2023/12/17 14:46:01;;;;;;;9.85;4.47;;;;;;;;;;4999413;28;20543;-80
2023/12/17 14:48:30;;;;;;;19.45;9.23;;;;;;;;;;5014507;28;20054;-81
2023/12/17 14:50:56;;;;;;;10.55;5.00;;;;;;;;;;5030335;28;20053;-81
2023/12/17 14:53:23;;;;;;;18.77;10.63;;;;;;;;;;5009845;28;20054;-81
2023/12/17 14:55:50;;;;;;;34.38;28.42;;;;;;;;;;5011500;28;20042;-81
2023/12/17 14:58:18;;;;;;;8.77;6.78;;;;;;;;;;5028015;28;20056;-81
2023/12/17 15:00:45;;;;;;;6.28;3.97;;;;;;;;;;5013819;28;20033;-80
2023/12/17 15:03:12;;;;;;;6.55;2.70;;;;;;;;;;5012991;28;20088;-81
2023/12/17 15:05:39;;;;;;;9.15;2.60;;;;;;;;;;5012264;28;20048;-82
2023/12/17 15:08:06;;;;;;;7.55;3.72;;;;;;;;;;5016577;28;20306;-81
2023/12/17 15:10:35;;;;;;;6.88;2.70;;;;;;;;;;5032716;28;20075;-82
2023/12/17 15:13:02;;;;;;;;;;;;;;;;;;5033541;28;20045;-82
2023/12/17 15:15:29;;;;;;;11.70;2.50;;;;;;;;;;5012475;28;19976;-81
2023/12/17 15:17:58;;;;;;;12.77;8.88;;;;;;;;;;5043630;28;20048;-81
2023/12/17 15:20:25;;;;;;;21.85;11.30;;;;;;;;;;5012658;28;20484;-82
2023/12/17 15:22:52;;;;;;;47.63;22.15;;;;;;;;;;5009110;28;20483;-81
2023/12/17 15:25:19;;;;;;;11.68;4.63;;;;;;;;;;5016312;28;20040;-82
2023/12/17 15:27:46;;;;;;;9.68;3.83;;;;;;;;;;5016608;28;20098;-83
2023/12/17 15:30:13;;;;;;;13.00;4.45;;;;;;;;;;5013008;28;20087;-81
2023/12/17 15:32:40;;;;;;;6.38;3.05;;;;;;;;;;5043158;28;20045;-81
2023/12/17 15:35:07;;;;;;;6.13;2.13;;;;;;;;;;5014869;28;20079;-80
2023/12/17 15:37:34;;;;;;;6.85;4.07;;;;;;;;;;5050675;28;20555;-81
2023/12/17 15:40:01;;;;;;;10.73;4.38;;;;;;;;;;5032658;28;20049;-80
2023/12/17 15:42:28;;;;;;;9.10;4.35;;;;;;;;;;5032361;28;20111;-83
2023/12/17 15:44:54;;;;;;;9.40;4.28;;;;;;;;;;5013731;28;20049;-83
2023/12/17 15:47:21;;;;;;;8.02;5.25;;;;;;;;;;5015581;28;20387;-85
2023/12/17 15:49:48;;;;;;;10.95;5.70;;;;;;;;;;5032399;28;20069;-84
2023/12/17 15:52:15;;;;;;;15.68;8.80;;;;;;;;;;5032720;28;20103;-84
2023/12/17 15:54:42;;;;;;;14.40;9.60;;;;;;;;;;5015583;28;20365;-82
2023/12/17 15:57:08;;;;;;;18.00;10.00;;;;;;;;;;5016120;28;20045;-83
2023/12/17 15:59:35;;;;;;;30.77;13.88;;;;;;;;;;5016493;28;20046;-84
2023/12/17 16:02:02;;;;;;;20.08;11.95;;;;;;;;;;5024719;28;20056;-82
2023/12/17 16:04:29;;;;;;;15.82;7.90;;;;;;;;;;5014372;28;20053;-81
2023/12/17 16:06:56;;;;;;;9.30;4.82;;;;;;;;;;5029814;28;20053;-82
2023/12/17 16:09:23;;;;;;;16.27;9.38;;;;;;;;;;5014198;28;20140;-82
2023/12/17 16:11:50;;;;;;;12.93;6.28;;;;;;;;;;5032705;28;20033;-83
2023/12/17 16:14:17;;;;;;;8.88;4.45;;;;;;;;;;4999887;28;20063;-83
2023/12/17 16:16:44;;;;;;;11.38;3.70;;;;;;;;;;5032803;28;20033;-82
2023/12/17 16:19:11;;;;;;;8.57;3.80;;;;;;;;;;5047182;28;20049;-82
2023/12/17 16:21:39;;;;;;;9.10;2.50;;;;;;;;;;5028222;28;20056;-81
2023/12/17 16:24:06;;;;;;;11.02;3.72;;;;;;;;;;5014773;28;20041;-82
2023/12/17 16:26:33;;;;;;;9.10;3.65;;;;;;;;;;5000028;28;20045;-82
2023/12/17 16:28:59;;;;;;;7.13;2.95;;;;;;;;;;5018987;28;20045;-82
2023/12/17 16:31:26;;;;;;;8.30;3.05;;;;;;;;;;5014725;28;20060;-82
2023/12/17 16:33:54;;;;;;;9.13;3.20;;;;;;;;;;5014201;28;20526;-82
2023/12/17 16:36:21;;;;;;;5.35;2.25;;;;;;;;;;5015707;28;20060;-82
2023/12/17 16:38:48;;;;;;;8.00;2.92;;;;;;;;;;5030845;28;20589;-82
2023/12/17 16:41:15;;;;;;;10.75;5.13;;;;;;;;;;5029884;28;20563;-81
2023/12/17 16:43:41;;;;;;;9.18;4.03;;;;;;;;;;5013252;28;20053;-82
2023/12/17 16:46:08;;;;;;;10.30;2.55;;;;;;;;;;5031234;28;20041;-82
2023/12/17 16:48:35;;;;;;;8.85;2.63;;;;;;;;;;5035360;28;20372;-83
2023/12/17 16:51:02;;;;;;;8.07;2.90;;;;;;;;;;5019343;28;20435;-82
2023/12/17 16:53:29;;;;;;;5.13;2.60;;;;;;;;;;5018611;28;20462;-81
2023/12/17 16:55:56;;;;;;;6.07;3.10;;;;;;;;;;5035102;28;20092;-81
2023/12/17 16:58:25;;;;;;;8.30;3.53;;;;;;;;;;5035404;28;20037;-81
2023/12/17 17:00:52;;;;;;;12.65;3.50;;;;;;;;;;5036111;28;20053;-81
2023/12/17 17:03:19;;;;;;;8.50;3.70;;;;;;;;;;5018474;28;20045;-82
2023/12/17 17:05:46;;;;;;;13.60;4.90;;;;;;;;;;5011599;28;20041;-82
2023/12/17 17:08:13;;;;;;;8.80;4.30;;;;;;;;;;5010050;28;20041;-83
2023/12/17 17:10:40;;;;;;;9.57;3.70;;;;;;;;;;5032203;28;20072;-82
2023/12/17 17:13:07;;;;;;;11.05;3.83;;;;;;;;;;5034689;28;20128;-81
2023/12/17 17:15:34;;;;;;;8.40;4.15;;;;;;;;;;5008759;28;20045;-83
2023/12/17 17:18:00;;;;;;;13.40;4.68;;;;;;;;;;5027145;28;20137;-82
2023/12/17 17:20:27;;;;;;;11.30;4.60;;;;;;;;;;5023672;28;20129;-82
2023/12/17 17:22:54;;;;;;;8.25;4.22;;;;;;;;;;5013877;28;20049;-82
2023/12/17 17:25:21;;;;;;;9.35;4.60;;;;;;;;;;5025928;28;20507;-81
2023/12/17 17:27:48;;;;;;;13.95;5.35;;;;;;;;;;5025697;28;20046;-81
2023/12/17 17:30:14;;;;;;;13.13;5.13;;;;;;;;;;5015563;28;20039;-82
2023/12/17 17:32:41;;;;;;;7.97;3.10;;;;;;;;;;5013047;28;20069;-82
2023/12/17 17:35:09;;;;;;;9.20;4.00;;;;;;;;;;5020019;28;20045;-81
2023/12/17 17:37:37;;;;;;;10.38;3.92;;;;;;;;;;5018706;28;20392;-82
2023/12/17 17:40:04;;;;;;;11.70;4.82;;;;;;;;;;5016522;28;20069;-82
2023/12/17 17:42:31;;;;;;;9.13;4.03;;;;;;;;;;5032851;28;20070;-82
2023/12/17 17:44:58;;;;;;;13.60;4.15;;;;;;;;;;5016004;28;20072;-82
2023/12/17 17:47:26;;;;;;;10.02;4.50;;;;;;;;;;5016782;28;20048;-82
2023/12/17 17:49:53;;;;;;;13.23;4.30;;;;;;;;;;5014637;28;20175;-81
2023/12/17 17:52:22;;;;;;;8.55;3.80;;;;;;;;;;5016875;28;20045;-81